createdAt,value
2023-11-14T09:38:17.452Z,99177.78
2023-11-14T09:40:51.727Z,99168.69
2023-11-14T09:43:19.192Z,99161.06
2023-11-14T09:45:47.809Z,99131.50
2023-11-14T09:48:15.660Z,99117.16
2023-11-14T09:50:43.688Z,99106.13
2023-11-14T09:53:11.033Z,99116.06
2023-11-14T09:55:39.493Z,99109.97
2023-11-14T09:58:06.983Z,99095.56
2023-11-14T10:00:39.893Z,99090.19
2023-11-14T10:03:06.852Z,99094.69
2023-11-14T10:05:34.014Z,99090.16
2023-11-14T10:08:04.873Z,99087.88
2023-11-14T10:10:32.919Z,99088.69
2023-11-14T10:13:01.114Z,99091.72
2023-11-14T10:15:32.424Z,99093.19
2023-11-14T10:18:00.518Z,99121.25
2023-11-14T10:20:47.848Z,99128.09
2023-11-14T10:23:24.502Z,99123.06
2023-11-14T10:26:09.937Z,99128.81
2023-11-14T10:28:37.405Z,99137.41
2023-11-14T10:31:15.764Z,99120.78
2023-11-14T10:33:44.830Z,99105.34
2023-11-14T10:36:12.399Z,99084.13
2023-11-14T10:38:39.384Z,99077.38
2023-11-14T10:41:06.589Z,99086.16
2023-11-14T10:43:38.263Z,99092.63
2023-11-14T10:46:15.369Z,99086.16
2023-11-14T10:48:45.797Z,99084.69
2023-11-14T10:51:15.346Z,99089.22
2023-11-14T10:53:42.985Z,99075.56
2023-11-14T10:56:13.572Z,99091.44
2023-11-14T10:58:41.111Z,99099.91
2023-11-14T11:01:09.676Z,99102.22
2023-11-14T11:03:36.942Z,99096.91
2023-11-14T11:06:04.706Z,99098.84
2023-11-14T11:08:31.853Z,99114.16
2023-11-14T11:10:59.645Z,99124.00
2023-11-14T11:13:28.251Z,99106.31
2023-11-14T11:15:56.721Z,99117.19
2023-11-14T11:18:38.380Z,99127.19
2023-11-14T11:21:13.233Z,99118.16
2023-11-14T11:24:12.359Z,99126.34
2023-11-14T11:27:19.929Z,99134.69
2023-11-14T11:29:59.571Z,99148.53
2023-11-14T11:32:34.455Z,99155.44
2023-11-14T11:35:25.001Z,99149.72
2023-11-14T11:38:05.443Z,99140.00
2023-11-14T11:40:33.478Z,99132.88
2023-11-14T11:43:12.739Z,99137.72
2023-11-14T11:45:50.579Z,99144.81
2023-11-14T11:48:37.141Z,99133.22
2023-11-14T11:51:21.551Z,99132.31
2023-11-14T11:53:50.666Z,99126.50
2023-11-14T11:56:39.766Z,99116.72
2023-11-14T11:59:08.831Z,99121.53
2023-11-14T12:01:47.359Z,99103.84
2023-11-14T12:04:14.777Z,99094.41
2023-11-14T12:06:45.487Z,99104.03
2023-11-14T12:09:14.195Z,99097.28
2023-11-14T12:11:42.054Z,99089.47
2023-11-14T12:14:10.912Z,99118.31
2023-11-14T12:16:39.726Z,99121.63
2023-11-14T12:19:11.333Z,99116.94
2023-11-14T12:21:42.269Z,99118.78
2023-11-14T12:24:09.475Z,99120.44
2023-11-14T12:26:38.739Z,99125.53
2023-11-14T12:29:14.059Z,99123.59
2023-11-14T12:31:48.452Z,99100.06
2023-11-14T12:34:30.794Z,99104.97
2023-11-14T12:37:31.050Z,99109.69
2023-11-14T12:40:24.792Z,99113.38
2023-11-14T12:42:52.232Z,99109.47
2023-11-14T12:45:19.513Z,99113.22
2023-11-14T12:47:46.601Z,99108.94
2023-11-14T12:50:23.380Z,99116.28
2023-11-14T12:52:55.732Z,99119.84
2023-11-14T12:55:25.916Z,99121.88
2023-11-14T12:57:53.543Z,99125.41
2023-11-14T13:00:20.685Z,99135.28
2023-11-14T13:02:49.033Z,99111.34
2023-11-14T13:05:16.092Z,99095.00
2023-11-14T13:07:43.443Z,99095.44
2023-11-14T13:10:10.658Z,99112.22
2023-11-14T13:12:38.741Z,99111.06
2023-11-14T13:15:07.365Z,99109.91
2023-11-14T13:17:34.377Z,99121.38
2023-11-14T13:20:03.236Z,99123.75
2023-11-14T13:22:36.079Z,99119.16
2023-11-14T13:25:11.458Z,99124.47
2023-11-14T13:27:41.755Z,99105.44
2023-11-14T13:30:17.079Z,99096.69
2023-11-14T13:32:50.867Z,99095.53
2023-11-14T13:35:18.846Z,99097.88
2023-11-14T13:37:47.095Z,99077.00
2023-11-14T13:40:15.841Z,99083.47
2023-11-14T13:42:50.860Z,99088.03
2023-11-14T13:45:19.731Z,99104.75
2023-11-14T13:47:57.266Z,99118.47
2023-11-14T13:50:24.461Z,99131.38
2023-11-14T13:52:54.019Z,99123.78
2023-11-14T13:55:21.437Z,99112.78
2023-11-14T13:57:49.000Z,99104.81
2023-11-14T14:00:18.780Z,99104.44
2023-11-14T14:02:47.371Z,99088.47
2023-11-14T14:05:19.963Z,99078.97
2023-11-14T14:07:51.253Z,99074.41
2023-11-14T14:10:18.547Z,99075.91
2023-11-14T14:12:47.571Z,99083.44
2023-11-14T14:15:18.072Z,99081.53
2023-11-14T14:17:56.698Z,99068.25
2023-11-14T14:20:24.319Z,99050.03
2023-11-14T14:22:56.617Z,99048.91
2023-11-14T14:25:26.871Z,99045.44
2023-11-14T14:27:59.760Z,99032.59
2023-11-14T14:30:29.476Z,99025.03
2023-11-14T14:32:56.398Z,99036.34
2023-11-14T14:35:23.657Z,99037.09
2023-11-14T14:37:51.954Z,99046.94
2023-11-14T14:40:21.211Z,99048.47
2023-11-14T14:42:54.427Z,99055.22
2023-11-14T14:45:24.718Z,99050.25
2023-11-14T14:47:53.015Z,99042.31
2023-11-14T14:50:22.562Z,99052.56
2023-11-14T14:52:52.895Z,99051.44
2023-11-14T14:55:19.946Z,99049.47
2023-11-14T14:57:54.441Z,99054.41
2023-11-14T15:00:23.871Z,99077.84
2023-11-14T15:02:54.462Z,99077.63
2023-11-14T15:05:23.916Z,99074.56
2023-11-14T15:07:59.464Z,99067.78
2023-11-14T15:10:31.341Z,99071.09
2023-11-14T15:13:00.659Z,99063.16
2023-11-14T15:15:30.181Z,99058.91
2023-11-14T15:18:03.463Z,99047.81
2023-11-14T15:20:32.135Z,99063.25
2023-11-14T15:23:11.561Z,99081.44
2023-11-14T15:25:45.793Z,99099.59
2023-11-14T15:28:15.112Z,99100.88
2023-11-14T15:30:43.082Z,99086.97
2023-11-14T15:33:13.224Z,99093.38
2023-11-14T15:35:49.017Z,99076.00
2023-11-14T15:38:21.215Z,99062.75
2023-11-14T15:40:49.184Z,99077.38
2023-11-14T15:43:21.007Z,99078.63
2023-11-14T15:45:48.933Z,99087.19
2023-11-14T15:48:20.619Z,99097.06
2023-11-14T15:50:53.660Z,99097.63
2023-11-14T15:53:24.451Z,99105.78
2023-11-14T15:55:57.467Z,99120.13
2023-11-14T15:58:26.074Z,99110.84
2023-11-14T16:03:43.358Z,99143.31
2023-11-14T16:06:11.304Z,99126.66
2023-11-14T16:08:38.705Z,99135.28
2023-11-14T16:11:10.084Z,99129.63
2023-11-14T16:13:39.167Z,99130.31
2023-11-14T16:16:09.058Z,99140.88
2023-11-14T16:18:37.852Z,99137.03
2023-11-14T16:21:05.307Z,99134.38
2023-11-14T16:23:40.717Z,99124.69
2023-11-14T16:26:12.112Z,99123.22
2023-11-14T16:28:42.731Z,99125.50
2023-11-14T16:31:09.659Z,99127.25
2023-11-14T16:33:39.209Z,99117.78
2023-11-14T16:36:06.487Z,99117.03
2023-11-14T16:38:34.106Z,99116.63
2023-11-14T16:41:01.372Z,99125.91
2023-11-14T16:43:32.692Z,99113.53
2023-11-14T16:45:59.991Z,99116.56
2023-11-14T16:48:26.867Z,99131.25
2023-11-14T16:50:56.990Z,99139.16
2023-11-14T16:53:23.835Z,99131.66
2023-11-14T16:55:51.218Z,99121.13
2023-11-14T16:58:18.246Z,99116.69
2023-11-14T17:00:45.298Z,99117.22
2023-11-14T17:03:14.561Z,99119.44
2023-11-14T17:05:42.051Z,99115.56
2023-11-14T17:08:14.000Z,99115.28
2023-11-14T17:10:45.156Z,99120.19
2023-11-14T17:13:12.930Z,99111.34
2023-11-14T17:15:41.714Z,99123.97
2023-11-14T17:18:09.509Z,99121.81
2023-11-14T17:20:38.735Z,99124.53
2023-11-14T17:23:07.638Z,99120.13
2023-11-14T17:25:35.026Z,99112.59
2023-11-14T17:28:03.784Z,99117.97
2023-11-14T17:30:35.117Z,99104.78
2023-11-14T17:33:03.740Z,99094.63
2023-11-14T17:35:31.180Z,99106.38
2023-11-14T17:38:00.447Z,99096.28
2023-11-14T17:40:29.161Z,99098.50
2023-11-14T17:42:56.268Z,99103.78
2023-11-14T17:45:27.325Z,99109.06
2023-11-14T17:47:57.161Z,99096.91
2023-11-14T17:50:27.418Z,99096.91
2023-11-14T17:52:54.585Z,99101.09
2023-11-14T17:55:23.651Z,99098.38
2023-11-14T17:57:50.435Z,99102.84
2023-11-14T18:00:18.722Z,99091.81
2023-11-14T18:02:45.603Z,99103.09
2023-11-14T18:05:17.549Z,99101.63
2023-11-14T18:07:48.320Z,99089.97
2023-11-14T18:10:16.558Z,99067.38
2023-11-14T18:12:46.285Z,99059.03
2023-11-14T18:15:14.655Z,99051.59
2023-11-14T18:17:41.630Z,99052.03
2023-11-14T18:20:12.083Z,99056.22
2023-11-14T18:22:42.414Z,99046.06
2023-11-14T18:25:14.503Z,99044.19
2023-11-14T18:27:42.172Z,99034.34
2023-11-14T18:30:10.771Z,99036.19
2023-11-14T18:32:40.238Z,99032.09
2023-11-14T18:35:11.706Z,99036.66
2023-11-14T18:37:40.078Z,99036.94
2023-11-14T18:40:11.396Z,99041.16
2023-11-14T18:42:43.596Z,99042.75
2023-11-14T18:45:11.353Z,99039.00
2023-11-14T18:47:40.987Z,99045.81
2023-11-14T18:50:11.609Z,99021.25
2023-11-14T18:52:40.586Z,99030.69
2023-11-14T18:55:11.223Z,99036.78
2023-11-14T18:57:38.756Z,99031.94
2023-11-14T19:00:06.684Z,99022.53
2023-11-14T19:02:35.387Z,99027.81
2023-11-14T19:05:02.437Z,99019.06
2023-11-14T19:07:29.299Z,99013.47
2023-11-14T19:09:58.275Z,99006.75
2023-11-14T19:12:25.619Z,99004.50
2023-11-14T19:14:53.155Z,98983.34
2023-11-14T19:17:24.575Z,98981.44
2023-11-14T19:19:53.959Z,98974.97
2023-11-14T19:23:02.111Z,98973.47
2023-11-14T19:25:11.470Z,98968.09
2023-11-14T19:27:39.540Z,98972.63
2023-11-14T19:30:12.994Z,98961.50
2023-11-14T19:32:43.105Z,98957.00
2023-11-14T19:35:11.397Z,98964.59
2023-11-14T19:37:38.097Z,98968.03
2023-11-14T19:40:07.635Z,98961.38
2023-11-14T19:42:35.899Z,98953.09
2023-11-14T19:45:08.026Z,98943.34
2023-11-14T19:47:38.255Z,98941.84
2023-11-14T19:50:10.254Z,98938.91
2023-11-14T19:52:48.060Z,98932.53
2023-11-14T19:55:18.303Z,98933.34
2023-11-14T19:57:47.570Z,98923.47
2023-11-14T20:00:18.887Z,98920.91
2023-11-14T20:02:55.455Z,98913.41
2023-11-14T20:05:24.502Z,98916.47
2023-11-14T20:08:00.288Z,98926.69
2023-11-14T20:10:30.173Z,98924.38
2023-11-14T20:13:03.424Z,98933.00
2023-11-14T20:18:16.684Z,98944.25
2023-11-14T20:20:46.089Z,98937.88
2023-11-14T20:23:20.153Z,98921.56
2023-11-14T20:25:52.610Z,98903.38
2023-11-14T20:28:21.919Z,98903.09
2023-11-14T20:30:49.397Z,98904.63
2023-11-14T20:33:16.383Z,98900.44
2023-11-14T20:35:44.321Z,98900.81
2023-11-14T20:38:16.230Z,98885.25
2023-11-14T20:40:43.091Z,98886.72
2023-11-14T20:43:12.020Z,98876.47
2023-11-14T20:45:38.812Z,98881.75
2023-11-14T20:48:07.768Z,98887.38
2023-11-14T20:50:38.229Z,98890.34
2023-11-14T20:53:05.030Z,98887.31
2023-11-14T20:55:32.624Z,98895.56
2023-11-14T20:58:01.521Z,98923.47
2023-11-14T21:00:30.852Z,98919.59
2023-11-14T21:02:58.701Z,98911.19
2023-11-14T21:05:27.862Z,98907.09
2023-11-14T21:07:59.068Z,98913.47
2023-11-14T21:10:27.135Z,98903.69
2023-11-14T21:12:56.452Z,98873.78
2023-11-14T21:15:23.542Z,98887.00
2023-11-14T21:17:53.708Z,98890.75
2023-11-14T21:20:22.292Z,98877.91
2023-11-14T21:22:49.481Z,98883.16
2023-11-14T21:25:16.708Z,98880.84
2023-11-14T21:27:44.271Z,98864.19
2023-11-14T21:30:14.661Z,98850.56
2023-11-14T21:32:49.624Z,98841.84
2023-11-14T21:35:19.717Z,98849.38
2023-11-14T21:37:49.567Z,98846.66
2023-11-14T21:40:18.643Z,98854.94
2023-11-14T21:42:46.696Z,98851.09
2023-11-14T21:45:22.014Z,98845.06
2023-11-14T21:47:58.309Z,98843.53
2023-11-14T21:50:26.003Z,98819.38
2023-11-14T21:52:53.179Z,98818.56
2023-11-14T21:55:23.952Z,98821.22
2023-11-14T21:57:53.576Z,98826.47
2023-11-14T22:00:23.983Z,98822.63
2023-11-14T22:02:53.008Z,98817.34
2023-11-14T22:05:24.060Z,98810.94
2023-11-14T22:07:56.375Z,98818.44
2023-11-14T22:10:24.487Z,98816.16
2023-11-14T22:13:00.029Z,98822.56
2023-11-14T22:15:30.996Z,98838.72
2023-11-14T22:17:58.619Z,98827.41
2023-11-14T22:20:25.658Z,98831.97
2023-11-14T22:22:55.156Z,98831.19
2023-11-14T22:25:22.667Z,98829.69
2023-11-14T22:27:50.693Z,98828.53
2023-11-14T22:30:17.786Z,98825.94
2023-11-14T22:32:47.748Z,98822.47
2023-11-14T22:35:21.004Z,98833.75
2023-11-14T22:37:47.733Z,98842.81
2023-11-14T22:40:16.684Z,98840.94
2023-11-14T22:42:43.451Z,98825.13
2023-11-14T22:45:13.169Z,98816.09
2023-11-14T22:47:45.942Z,98813.84
2023-11-14T22:50:24.463Z,98822.91
2023-11-14T22:52:54.172Z,98808.56
2023-11-14T22:55:34.024Z,98815.31
2023-11-14T22:58:04.785Z,98802.41
2023-11-14T23:01:01.466Z,98808.47
2023-11-14T23:03:34.107Z,98810.69
2023-11-14T23:06:02.728Z,98811.41
2023-11-14T23:09:17.368Z,98821.22
2023-11-14T23:11:51.846Z,98812.88
2023-11-14T23:14:24.919Z,98827.34
2023-11-14T23:16:52.246Z,98839.75
2023-11-14T23:19:21.476Z,98856.41
2023-11-14T23:21:55.394Z,98864.72
2023-11-14T23:24:27.516Z,98859.44
2023-11-14T23:26:58.213Z,98866.94
2023-11-14T23:29:27.540Z,98894.88
2023-11-14T23:31:57.029Z,98892.63
2023-11-14T23:34:24.708Z,98888.09
2023-11-14T23:36:52.840Z,98870.69
2023-11-14T23:39:22.657Z,98846.97
2023-11-14T23:41:51.813Z,98842.81
2023-11-14T23:44:20.030Z,98844.31
2023-11-14T23:46:47.097Z,98838.28
2023-11-14T23:49:14.407Z,98832.28
2023-11-14T23:51:41.895Z,98836.00
2023-11-14T23:54:09.291Z,98837.13
2023-11-14T23:56:37.464Z,98819.38
2023-11-14T23:59:07.297Z,98824.66
